sensor_id;sensor_type;location;lat;lon;timestamp;pressure;altitude;pressure_sealevel;temperature;humidity
29505;BME280;16452;54.174;12.092;2022-11-20T00:01:28;100909.38;;;5.43;90.64
29505;BME280;16452;54.174;12.092;2022-11-20T00:03:56;100904.88;;;5.50;90.31
29505;BME280;16452;54.174;12.092;2022-11-20T00:06:24;100907.50;;;5.48;91.93
29505;BME280;16452;54.174;12.092;2022-11-20T00:08:54;100906.09;;;5.36;91.43
29505;BME280;16452;54.174;12.092;2022-11-20T00:11:22;100906.06;;;5.38;89.55
29505;BME280;16452;54.174;12.092;2022-11-20T00:13:52;100906.53;;;5.52;92.24
29505;BME280;16452;54.174;12.092;2022-11-20T00:16:22;100911.03;;;5.46;91.35
29505;BME280;16452;54.174;12.092;2022-11-20T00:18:48;100903.41;;;5.41;90.48
29505;BME280;16452;54.174;12.092;2022-11-20T00:21:18;100905.00;;;5.45;92.42
29505;BME280;16452;54.174;12.092;2022-11-20T00:23:44;100911.06;;;5.44;92.43
29505;BME280;16452;54.174;12.092;2022-11-20T00:26:14;100907.59;;;5.45;91.21
29505;BME280;16452;54.174;12.092;2022-11-20T00:28:41;100902.56;;;5.41;90.22
29505;BME280;16452;54.174;12.092;2022-11-20T00:31:11;100905.84;;;5.46;90.93
29505;BME280;16452;54.174;12.092;2022-11-20T00:33:37;100903.53;;;5.36;90.92
29505;BME280;16452;54.174;12.092;2022-11-20T00:36:26;100904.44;;;5.35;91.38
29505;BME280;16452;54.174;12.092;2022-11-20T00:38:52;100906.22;;;5.33;92.32
29505;BME280;16452;54.174;12.092;2022-11-20T00:41:18;100905.34;;;5.33;92.60
29505;BME280;16452;54.174;12.092;2022-11-20T00:43:44;100903.50;;;5.38;92.47
29505;BME280;16452;54.174;12.092;2022-11-20T00:46:15;100908.50;;;5.43;90.67
29505;BME280;16452;54.174;12.092;2022-11-20T00:48:42;100907.03;;;5.35;89.74
29505;BME280;16452;54.174;12.092;2022-11-20T00:51:08;100902.56;;;5.41;90.46
29505;BME280;16452;54.174;12.092;2022-11-20T00:53:34;100898.50;;;5.32;90.44
29505;BME280;16452;54.174;12.092;2022-11-20T00:56:04;100911.63;;;5.54;90.69
29505;BME280;16452;54.174;12.092;2022-11-20T00:58:41;100915.16;;;5.51;90.76
29505;BME280;16452;54.174;12.092;2022-11-20T01:01:12;100911.88;;;5.46;90.52
29505;BME280;16452;54.174;12.092;2022-11-20T01:03:44;100902.31;;;5.48;90.71
29505;BME280;16452;54.174;12.092;2022-11-20T01:06:20;100907.44;;;5.50;89.70
29505;BME280;16452;54.174;12.092;2022-11-20T01:08:48;100903.31;;;5.44;89.09
29505;BME280;16452;54.174;12.092;2022-11-20T01:11:25;100893.16;;;5.38;89.68
29505;BME280;16452;54.174;12.092;2022-11-20T01:13:52;100901.53;;;5.46;89.89
29505;BME280;16452;54.174;12.092;2022-11-20T01:16:30;100895.13;;;5.30;91.54
29505;BME280;16452;54.174;12.092;2022-11-20T01:19:00;100901.53;;;5.46;91.81
29505;BME280;16452;54.174;12.092;2022-11-20T01:21:30;100900.41;;;5.55;92.71
29505;BME280;16452;54.174;12.092;2022-11-20T01:23:57;100896.31;;;5.48;92.06
29505;BME280;16452;54.174;12.092;2022-11-20T01:26:27;100898.19;;;5.43;90.54
29505;BME280;16452;54.174;12.092;2022-11-20T01:28:53;100894.09;;;5.35;90.49
29505;BME280;16452;54.174;12.092;2022-11-20T01:31:22;100899.97;;;5.41;90.30
29505;BME280;16452;54.174;12.092;2022-11-20T01:33:52;100902.66;;;5.36;89.43
29505;BME280;16452;54.174;12.092;2022-11-20T01:36:20;100890.03;;;5.27;89.86
29505;BME280;16452;54.174;12.092;2022-11-20T01:38:47;100892.28;;;5.39;89.08
29505;BME280;16452;54.174;12.092;2022-11-20T01:41:15;100896.50;;;5.42;88.47
29505;BME280;16452;54.174;12.092;2022-11-20T01:44:02;100896.63;;;5.37;88.08
29505;BME280;16452;54.174;12.092;2022-11-20T01:46:28;100890.03;;;5.27;89.63
29505;BME280;16452;54.174;12.092;2022-11-20T01:48:58;100892.00;;;5.48;89.86
29505;BME280;16452;54.174;12.092;2022-11-20T01:51:39;100887.78;;;5.46;88.83
29505;BME280;16452;54.174;12.092;2022-11-20T01:54:12;100886.88;;;5.47;87.51
29505;BME280;16452;54.174;12.092;2022-11-20T01:56:43;100880.41;;;5.32;88.71
29505;BME280;16452;54.174;12.092;2022-11-20T01:59:11;100872.00;;;5.25;89.40
29505;BME280;16452;54.174;12.092;2022-11-20T02:01:38;100881.31;;;5.31;88.22
29505;BME280;16452;54.174;12.092;2022-11-20T02:04:06;100880.25;;;5.38;88.65
29505;BME280;16452;54.174;12.092;2022-11-20T02:09:03;100872.41;;;5.41;88.53
29505;BME280;16452;54.174;12.092;2022-11-20T02:11:31;100871.78;;;5.33;90.36
29505;BME280;16452;54.174;12.092;2022-11-20T02:13:57;100867.69;;;5.26;91.49
29505;BME280;16452;54.174;12.092;2022-11-20T02:16:40;100859.84;;;5.29;90.88
29505;BME280;16452;54.174;12.092;2022-11-20T02:19:24;100862.19;;;5.36;91.88
29505;BME280;16452;54.174;12.092;2022-11-20T02:24:22;100855.72;;;5.23;89.78
29505;BME280;16452;54.174;12.092;2022-11-20T02:29:43;100850.72;;;5.17;88.62
29505;BME280;16452;54.174;12.092;2022-11-20T02:32:33;100853.34;;;5.45;86.94
29505;BME280;16452;54.174;12.092;2022-11-20T02:37:46;100849.47;;;5.30;85.10
29505;BME280;16452;54.174;12.092;2022-11-20T02:40:13;100852.03;;;5.30;85.46
29505;BME280;16452;54.174;12.092;2022-11-20T02:42:39;100847.69;;;5.32;86.84
29505;BME280;16452;54.174;12.092;2022-11-20T02:45:06;100845.84;;;5.36;86.83
29505;BME280;16452;54.174;12.092;2022-11-20T02:47:32;100848.56;;;5.31;85.77
29505;BME280;16452;54.174;12.092;2022-11-20T02:49:58;100843.22;;;5.37;84.85
29505;BME280;16452;54.174;12.092;2022-11-20T02:52:25;100838.41;;;5.25;84.63
29505;BME280;16452;54.174;12.092;2022-11-20T02:54:51;100844.84;;;5.42;85.29
29505;BME280;16452;54.174;12.092;2022-11-20T02:57:16;100840.47;;;5.44;82.93
29505;BME280;16452;54.174;12.092;2022-11-20T02:59:42;100839.88;;;5.35;82.87
29505;BME280;16452;54.174;12.092;2022-11-20T03:02:08;100838.31;;;5.30;83.20
29505;BME280;16452;54.174;12.092;2022-11-20T03:04:33;100835.53;;;5.36;83.62
29505;BME280;16452;54.174;12.092;2022-11-20T03:06:59;100837.41;;;5.31;84.17
29505;BME280;16452;54.174;12.092;2022-11-20T03:09:25;100841.88;;;5.24;86.81
29505;BME280;16452;54.174;12.092;2022-11-20T03:11:51;100841.25;;;5.47;87.09
29505;BME280;16452;54.174;12.092;2022-11-20T03:14:16;100836.00;;;5.49;87.18
29505;BME280;16452;54.174;12.092;2022-11-20T03:16:42;100835.47;;;5.37;85.91
29505;BME280;16452;54.174;12.092;2022-11-20T03:19:08;100828.97;;;5.54;85.06
29505;BME280;16452;54.174;12.092;2022-11-20T03:21:34;100827.72;;;5.37;84.89
29505;BME280;16452;54.174;12.092;2022-11-20T03:24:01;100825.66;;;5.49;86.31
29505;BME280;16452;54.174;12.092;2022-11-20T03:26:28;100834.56;;;5.40;85.91
29505;BME280;16452;54.174;12.092;2022-11-20T03:28:57;100830.84;;;5.49;84.19
29505;BME280;16452;54.174;12.092;2022-11-20T03:31:31;100819.56;;;5.51;82.58
29505;BME280;16452;54.174;12.092;2022-11-20T03:33:58;100820.75;;;5.41;84.39
29505;BME280;16452;54.174;12.092;2022-11-20T03:36:25;100818.78;;;5.49;84.24
29505;BME280;16452;54.174;12.092;2022-11-20T03:38:54;100816.00;;;5.27;86.03
29505;BME280;16452;54.174;12.092;2022-11-20T03:41:24;100813.47;;;5.24;86.20
29505;BME280;16452;54.174;12.092;2022-11-20T03:44:00;100814.06;;;5.34;85.42
29505;BME280;16452;54.174;12.092;2022-11-20T03:46:27;100810.91;;;5.24;86.31
29505;BME280;16452;54.174;12.092;2022-11-20T03:48:53;100815.16;;;5.27;87.37
29505;BME280;16452;54.174;12.092;2022-11-20T03:51:31;100812.28;;;5.36;85.91
29505;BME280;16452;54.174;12.092;2022-11-20T03:54:00;100805.00;;;5.21;86.22
29505;BME280;16452;54.174;12.092;2022-11-20T03:56:30;100802.78;;;5.36;86.76
29505;BME280;16452;54.174;12.092;2022-11-20T03:58:57;100810.00;;;5.25;86.91
29505;BME280;16452;54.174;12.092;2022-11-20T04:01:30;100807.56;;;5.21;86.32
29505;BME280;16452;54.174;12.092;2022-11-20T04:03:57;100807.09;;;5.08;86.43
29505;BME280;16452;54.174;12.092;2022-11-20T04:06:36;100810.53;;;5.36;86.00
29505;BME280;16452;54.174;12.092;2022-11-20T04:09:03;100809.28;;;5.22;86.24
29505;BME280;16452;54.174;12.092;2022-11-20T04:11:32;100804.25;;;5.17;86.87
29505;BME280;16452;54.174;12.092;2022-11-20T04:14:01;100804.25;;;5.17;86.09
29505;BME280;16452;54.174;12.092;2022-11-20T04:16:33;100809.69;;;5.07;85.32
29505;BME280;16452;54.174;12.092;2022-11-20T04:19:02;100802.78;;;5.09;85.12
29505;BME280;16452;54.174;12.092;2022-11-20T04:21:29;100801.53;;;5.22;84.62
29505;BME280;16452;54.174;12.092;2022-11-20T04:23:56;100798.72;;;5.29;83.42
29505;BME280;16452;54.174;12.092;2022-11-20T04:26:26;100804.47;;;5.37;84.51
29505;BME280;16452;54.174;12.092;2022-11-20T04:28:52;100802.84;;;5.35;84.94
29505;BME280;16452;54.174;12.092;2022-11-20T04:31:24;100802.94;;;5.32;83.78
29505;BME280;16452;54.174;12.092;2022-11-20T04:33:51;100801.69;;;5.16;83.97
29505;BME280;16452;54.174;12.092;2022-11-20T04:36:26;100800.28;;;5.35;82.83
29505;BME280;16452;54.174;12.092;2022-11-20T04:38:58;100804.84;;;5.25;80.80
29505;BME280;16452;54.174;12.092;2022-11-20T04:41:29;100803.88;;;5.29;82.26
29505;BME280;16452;54.174;12.092;2022-11-20T04:43:58;100795.72;;;5.14;82.77
29505;BME280;16452;54.174;12.092;2022-11-20T04:46:37;100796.19;;;5.28;83.05
29505;BME280;16452;54.174;12.092;2022-11-20T04:49:03;100791.19;;;5.22;83.29
29505;BME280;16452;54.174;12.092;2022-11-20T04:51:29;100791.44;;;5.13;84.21
29505;BME280;16452;54.174;12.092;2022-11-20T04:53:55;100795.91;;;5.08;83.88
29505;BME280;16452;54.174;12.092;2022-11-20T04:56:21;100792.78;;;5.26;82.34
29505;BME280;16452;54.174;12.092;2022-11-20T04:58:46;100785.50;;;5.11;82.56
29505;BME280;16452;54.174;12.092;2022-11-20T05:01:16;100786.91;;;5.21;82.26
29505;BME280;16452;54.174;12.092;2022-11-20T05:03:43;100788.41;;;5.29;83.46
29505;BME280;16452;54.174;12.092;2022-11-20T05:06:12;100791.00;;;5.28;85.71
29505;BME280;16452;54.174;12.092;2022-11-20T05:08:38;100787.38;;;5.35;86.55
29505;BME280;16452;54.174;12.092;2022-11-20T05:11:08;100776.72;;;5.16;86.86
29505;BME280;16452;54.174;12.092;2022-11-20T05:13:34;100776.59;;;5.21;86.52
29505;BME280;16452;54.174;12.092;2022-11-20T05:16:02;100769.59;;;5.24;86.56
29505;BME280;16452;54.174;12.092;2022-11-20T05:18:28;100775.34;;;5.34;86.57
29505;BME280;16452;54.174;12.092;2022-11-20T05:20:56;100772.81;;;5.31;86.81
29505;BME280;16452;54.174;12.092;2022-11-20T05:23:22;100766.13;;;5.25;85.32
29505;BME280;16452;54.174;12.092;2022-11-20T05:25:47;100765.00;;;5.06;86.60
29505;BME280;16452;54.174;12.092;2022-11-20T05:28:13;100765.00;;;5.06;85.86
29505;BME280;16452;54.174;12.092;2022-11-20T05:30:39;100753.28;;;5.24;84.46
29505;BME280;16452;54.174;12.092;2022-11-20T05:33:05;100758.97;;;5.06;86.33
29505;BME280;16452;54.174;12.092;2022-11-20T05:35:31;100755.13;;;5.19;85.77
29505;BME280;16452;54.174;12.092;2022-11-20T05:37:56;100750.41;;;5.05;86.06
29505;BME280;16452;54.174;12.092;2022-11-20T05:40:22;100750.22;;;5.11;86.25
29505;BME280;16452;54.174;12.092;2022-11-20T05:42:47;100746.97;;;5.05;87.61
29505;BME280;16452;54.174;12.092;2022-11-20T05:45:13;100741.69;;;5.08;86.86
29505;BME280;16452;54.174;12.092;2022-11-20T05:47:39;100746.56;;;5.18;85.37
29505;BME280;16452;54.174;12.092;2022-11-20T05:50:05;100752.47;;;5.22;85.34
29505;BME280;16452;54.174;12.092;2022-11-20T05:52:31;100739.75;;;5.16;85.26
29505;BME280;16452;54.174;12.092;2022-11-20T05:54:57;100740.81;;;5.09;87.38
29505;BME280;16452;54.174;12.092;2022-11-20T05:57:22;100736.47;;;5.11;87.60
29505;BME280;16452;54.174;12.092;2022-11-20T05:59:48;100744.38;;;5.05;87.54
29505;BME280;16452;54.174;12.092;2022-11-20T06:02:14;100739.22;;;5.05;87.78
29505;BME280;16452;54.174;12.092;2022-11-20T06:04:39;100735.78;;;5.04;86.96
29505;BME280;16452;54.174;12.092;2022-11-20T06:07:06;100739.03;;;5.11;87.59
29505;BME280;16452;54.174;12.092;2022-11-20T06:09:32;100737.53;;;5.04;87.16
29505;BME280;16452;54.174;12.092;2022-11-20T06:11:57;100734.66;;;5.13;86.18
29505;BME280;16452;54.174;12.092;2022-11-20T06:14:23;100731.19;;;5.14;85.62
29505;BME280;16452;54.174;12.092;2022-11-20T06:16:49;100729.31;;;5.19;85.57
29505;BME280;16452;54.174;12.092;2022-11-20T06:19:15;100735.19;;;5.24;86.25
29505;BME280;16452;54.174;12.092;2022-11-20T06:21:40;100732.41;;;5.02;86.98
29505;BME280;16452;54.174;12.092;2022-11-20T06:24:09;100739.06;;;5.09;86.78
29505;BME280;16452;54.174;12.092;2022-11-20T06:26:34;100735.50;;;5.13;86.96
29505;BME280;16452;54.174;12.092;2022-11-20T06:29:00;100741.06;;;5.29;86.28
29505;BME280;16452;54.174;12.092;2022-11-20T06:31:27;100735.19;;;5.24;85.72
29505;BME280;16452;54.174;12.092;2022-11-20T06:33:53;100730.63;;;5.04;85.66
29505;BME280;16452;54.174;12.092;2022-11-20T06:36:22;100744.31;;;5.35;84.81
29505;BME280;16452;54.174;12.092;2022-11-20T06:38:48;100736.28;;;5.43;84.11
29505;BME280;16452;54.174;12.092;2022-11-20T06:41:20;100735.13;;;5.25;86.20
29505;BME280;16452;54.174;12.092;2022-11-20T06:43:46;100737.53;;;5.31;85.58
29505;BME280;16452;54.174;12.092;2022-11-20T06:46:14;100731.44;;;5.34;84.55
29505;BME280;16452;54.174;12.092;2022-11-20T06:48:40;100732.63;;;5.24;83.17
29505;BME280;16452;54.174;12.092;2022-11-20T06:51:07;100729.78;;;5.04;84.10
29505;BME280;16452;54.174;12.092;2022-11-20T06:53:33;100735.31;;;5.19;83.89
29505;BME280;16452;54.174;12.092;2022-11-20T06:55:59;100734.00;;;5.34;83.48
29505;BME280;16452;54.174;12.092;2022-11-20T06:58:27;100731.88;;;5.19;86.69
29505;BME280;16452;54.174;12.092;2022-11-20T07:00:58;100736.75;;;5.29;87.59
29505;BME280;16452;54.174;12.092;2022-11-20T07:03:24;100733.66;;;5.18;88.37
29505;BME280;16452;54.174;12.092;2022-11-20T07:05:50;100738.19;;;5.10;89.48
29505;BME280;16452;54.174;12.092;2022-11-20T07:08:15;100740.28;;;4.68;93.05
29505;BME280;16452;54.174;12.092;2022-11-20T07:10:41;100740.59;;;4.58;95.04
29505;BME280;16452;54.174;12.092;2022-11-20T07:13:07;100726.56;;;4.66;96.23
29505;BME280;16452;54.174;12.092;2022-11-20T07:15:33;100733.78;;;4.84;95.55
29505;BME280;16452;54.174;12.092;2022-11-20T07:17:59;100734.28;;;4.97;94.75
29505;BME280;16452;54.174;12.092;2022-11-20T07:20:25;100733.69;;;4.89;95.56
29505;BME280;16452;54.174;12.092;2022-11-20T07:22:58;100723.28;;;4.90;96.50
29505;BME280;16452;54.174;12.092;2022-11-20T07:25:25;100732.22;;;4.79;96.70
29505;BME280;16452;54.174;12.092;2022-11-20T07:27:51;100731.03;;;4.61;97.89
29505;BME280;16452;54.174;12.092;2022-11-20T07:30:17;100724.97;;;4.31;99.97
29505;BME280;16452;54.174;12.092;2022-11-20T07:32:47;100729.47;;;4.55;100.00
29505;BME280;16452;54.174;12.092;2022-11-20T07:35:16;100724.47;;;4.49;100.00
29505;BME280;16452;54.174;12.092;2022-11-20T07:37:41;100722.41;;;4.62;100.00
29505;BME280;16452;54.174;12.092;2022-11-20T07:40:07;100720.69;;;4.61;99.45
29505;BME280;16452;54.174;12.092;2022-11-20T07:42:33;100723.63;;;4.49;99.87
29505;BME280;16452;54.174;12.092;2022-11-20T07:44:59;100726.19;;;4.49;100.00
29505;BME280;16452;54.174;12.092;2022-11-20T07:47:25;100732.91;;;4.54;100.00
29505;BME280;16452;54.174;12.092;2022-11-20T07:49:50;100721.34;;;4.69;100.00
29505;BME280;16452;54.174;12.092;2022-11-20T07:52:16;100727.16;;;4.46;100.00
29505;BME280;16452;54.174;12.092;2022-11-20T07:54:42;100725.34;;;4.48;100.00
29505;BME280;16452;54.174;12.092;2022-11-20T07:57:08;100723.63;;;4.49;100.00
29505;BME280;16452;54.174;12.092;2022-11-20T07:59:33;100726.00;;;4.57;100.00
29505;BME280;16452;54.174;12.092;2022-11-20T08:01:59;100725.31;;;4.81;100.00
29505;BME280;16452;54.174;12.092;2022-11-20T08:04:25;100725.81;;;4.63;100.00
29505;BME280;16452;54.174;12.092;2022-11-20T08:06:52;100727.66;;;4.88;100.00
29505;BME280;16452;54.174;12.092;2022-11-20T08:09:18;100720.28;;;4.76;100.00
29505;BME280;16452;54.174;12.092;2022-11-20T08:11:43;100719.00;;;4.60;100.00
29505;BME280;16452;54.174;12.092;2022-11-20T08:14:27;100718.13;;;4.61;100.00
29505;BME280;16452;54.174;12.092;2022-11-20T08:16:53;100720.09;;;4.53;100.00
29505;BME280;16452;54.174;12.092;2022-11-20T08:19:19;100725.13;;;4.58;100.00
29505;BME280;16452;54.174;12.092;2022-11-20T08:21:45;100727.13;;;4.48;100.00
29505;BME280;16452;54.174;12.092;2022-11-20T08:24:12;100726.94;;;4.54;100.00
29505;BME280;16452;54.174;12.092;2022-11-20T08:26:39;100720.78;;;4.60;100.00
29505;BME280;16452;54.174;12.092;2022-11-20T08:29:05;100724.81;;;4.68;100.00
29505;BME280;16452;54.174;12.092;2022-11-20T08:31:32;100729.81;;;4.73;100.00
29505;BME280;16452;54.174;12.092;2022-11-20T08:33:57;100724.75;;;4.40;100.00
29505;BME280;16452;54.174;12.092;2022-11-20T08:36:24;100730.50;;;4.48;100.00
29505;BME280;16452;54.174;12.092;2022-11-20T08:38:54;100723.72;;;4.77;100.00
29505;BME280;16452;54.174;12.092;2022-11-20T08:41:21;100726.53;;;4.97;100.00
29505;BME280;16452;54.174;12.092;2022-11-20T08:43:59;100726.50;;;4.99;100.00
29505;BME280;16452;54.174;12.092;2022-11-20T08:46:28;100721.47;;;4.94;100.00
29505;BME280;16452;54.174;12.092;2022-11-20T08:48:56;100728.13;;;5.01;100.00
29505;BME280;16452;54.174;12.092;2022-11-20T08:51:22;100728.56;;;4.87;100.00
29505;BME280;16452;54.174;12.092;2022-11-20T08:53:47;100725.09;;;4.59;100.00
29505;BME280;16452;54.174;12.092;2022-11-20T08:56:17;100726.03;;;4.84;100.00
29505;BME280;16452;54.174;12.092;2022-11-20T08:58:43;100725.31;;;5.09;100.00
29505;BME280;16452;54.174;12.092;2022-11-20T09:01:10;100717.50;;;5.12;100.00
29505;BME280;16452;54.174;12.092;2022-11-20T09:03:35;100727.53;;;5.21;100.00
29505;BME280;16452;54.174;12.092;2022-11-20T09:06:04;100716.09;;;5.29;100.00
29505;BME280;16452;54.174;12.092;2022-11-20T09:08:31;100718.13;;;5.46;100.00
29505;BME280;16452;54.174;12.092;2022-11-20T09:10:58;100721.44;;;5.50;98.95
29505;BME280;16452;54.174;12.092;2022-11-20T09:13:26;100721.88;;;5.64;97.75
29505;BME280;16452;54.174;12.092;2022-11-20T09:16:01;100722.72;;;5.64;96.94
29505;BME280;16452;54.174;12.092;2022-11-20T09:18:28;100717.94;;;5.52;99.69
29505;BME280;16452;54.174;12.092;2022-11-20T09:20:58;100720.94;;;5.38;100.00
29505;BME280;16452;54.174;12.092;2022-11-20T09:23:25;100714.91;;;5.40;100.00
29505;BME280;16452;54.174;12.092;2022-11-20T09:25:50;100717.31;;;5.44;100.00
29505;BME280;16452;54.174;12.092;2022-11-20T09:28:16;100719.97;;;5.69;100.00
29505;BME280;16452;54.174;12.092;2022-11-20T09:30:44;100717.66;;;5.60;99.63
29505;BME280;16452;54.174;12.092;2022-11-20T09:33:10;100718.44;;;5.63;100.00
29505;BME280;16452;54.174;12.092;2022-11-20T09:35:36;100711.69;;;5.84;100.00
29505;BME280;16452;54.174;12.092;2022-11-20T09:38:07;100713.41;;;6.11;99.01
29505;BME280;16452;54.174;12.092;2022-11-20T09:40:35;100712.13;;;5.98;99.04
29505;BME280;16452;54.174;12.092;2022-11-20T09:52:00;100714.31;;;6.09;98.29
29505;BME280;16452;54.174;12.092;2022-11-20T09:54:38;100723.59;;;5.90;98.55
29505;BME280;16452;54.174;12.092;2022-11-20T09:57:13;100712.88;;;6.00;98.40
29505;BME280;16452;54.174;12.092;2022-11-20T09:59:56;100711.59;;;5.61;100.00
29505;BME280;16452;54.174;12.092;2022-11-20T10:05:15;100711.13;;;5.76;100.00
29505;BME280;16452;54.174;12.092;2022-11-20T10:07:53;100708.38;;;5.81;100.00
29505;BME280;16452;54.174;12.092;2022-11-20T10:10:58;100704.69;;;5.61;100.00
29505;BME280;16452;54.174;12.092;2022-11-20T10:17:33;100709.44;;;5.75;100.00
29505;BME280;16452;54.174;12.092;2022-11-20T10:20:25;100710.19;;;5.52;100.00
29505;BME280;16452;54.174;12.092;2022-11-20T10:23:33;100705.13;;;5.48;100.00
29505;BME280;16452;54.174;12.092;2022-11-20T10:28:47;100708.78;;;5.42;100.00
29505;BME280;16452;54.174;12.092;2022-11-20T10:31:37;100699.00;;;5.52;100.00
29505;BME280;16452;54.174;12.092;2022-11-20T10:34:19;100699.41;;;5.40;100.00
29505;BME280;16452;54.174;12.092;2022-11-20T10:42:45;100696.84;;;5.38;100.00
29505;BME280;16452;54.174;12.092;2022-11-20T10:47:54;100701.16;;;5.37;100.00
29505;BME280;16452;54.174;12.092;2022-11-20T10:50:22;100700.81;;;5.48;100.00
29505;BME280;16452;54.174;12.092;2022-11-20T10:55:49;100698.28;;;5.73;100.00
29505;BME280;16452;54.174;12.092;2022-11-20T10:58:25;100701.47;;;5.28;100.00
29505;BME280;16452;54.174;12.092;2022-11-20T11:01:13;100705.47;;;5.65;100.00
29505;BME280;16452;54.174;12.092;2022-11-20T11:03:40;100708.75;;;5.70;100.00
29505;BME280;16452;54.174;12.092;2022-11-20T11:06:34;100715.13;;;5.32;100.00
29505;BME280;16452;54.174;12.092;2022-11-20T11:09:13;100706.66;;;5.28;100.00
29505;BME280;16452;54.174;12.092;2022-11-20T11:11:41;100702.72;;;4.89;100.00
29505;BME280;16452;54.174;12.092;2022-11-20T11:14:13;100708.25;;;4.75;100.00
29505;BME280;16452;54.174;12.092;2022-11-20T11:16:54;100703.09;;;5.05;100.00
29505;BME280;16452;54.174;12.092;2022-11-20T11:19:21;100705.00;;;4.98;100.00
29505;BME280;16452;54.174;12.092;2022-11-20T11:21:53;100697.22;;;5.00;100.00
29505;BME280;16452;54.174;12.092;2022-11-20T11:24:28;100707.16;;;5.12;100.00
29505;BME280;16452;54.174;12.092;2022-11-20T11:26:59;100698.53;;;4.83;100.00
29505;BME280;16452;54.174;12.092;2022-11-20T11:29:25;100707.41;;;5.04;100.00
29505;BME280;16452;54.174;12.092;2022-11-20T11:32:11;100707.44;;;5.03;100.00
29505;BME280;16452;54.174;12.092;2022-11-20T11:34:37;100706.22;;;4.86;100.00
29505;BME280;16452;54.174;12.092;2022-11-20T11:37:05;100704.13;;;4.70;100.00
29505;BME280;16452;54.174;12.092;2022-11-20T11:39:37;100700.88;;;4.63;100.00
29505;BME280;16452;54.174;12.092;2022-11-20T11:42:04;100701.19;;;4.82;100.00
29505;BME280;16452;54.174;12.092;2022-11-20T11:44:34;100696.59;;;4.91;100.00
29505;BME280;16452;54.174;12.092;2022-11-20T11:47:52;100697.47;;;4.90;100.00
29505;BME280;16452;54.174;12.092;2022-11-20T11:50:23;100696.78;;;5.13;100.00
29505;BME280;16452;54.174;12.092;2022-11-20T11:53:14;100697.00;;;5.33;100.00
29505;BME280;16452;54.174;12.092;2022-11-20T11:56:09;100700.44;;;5.34;100.00
29505;BME280;16452;54.174;12.092;2022-11-20T11:58:51;100698.31;;;4.91;100.00
29505;BME280;16452;54.174;12.092;2022-11-20T12:01:39;100701.72;;;4.93;100.00
29505;BME280;16452;54.174;12.092;2022-11-20T12:06:57;100688.13;;;4.59;100.00
29505;BME280;16452;54.174;12.092;2022-11-20T12:09:35;100693.25;;;4.29;100.00
29505;BME280;16452;54.174;12.092;2022-11-20T12:12:17;100694.69;;;4.69;100.00
29505;BME280;16452;54.174;12.092;2022-11-20T12:14:47;100694.47;;;4.76;100.00
29505;BME280;16452;54.174;12.092;2022-11-20T12:17:15;100693.09;;;4.35;100.00
29505;BME280;16452;54.174;12.092;2022-11-20T12:19:41;100691.25;;;4.68;100.00
29505;BME280;16452;54.174;12.092;2022-11-20T12:23:07;100684.16;;;5.04;100.00
29505;BME280;16452;54.174;12.092;2022-11-20T12:25:36;100681.75;;;4.98;100.00
29505;BME280;16452;54.174;12.092;2022-11-20T12:30:42;100677.84;;;5.13;100.00
29505;BME280;16452;54.174;12.092;2022-11-20T12:33:47;100679.28;;;5.23;100.00
29505;BME280;16452;54.174;12.092;2022-11-20T12:36:36;100685.44;;;5.45;99.10
29505;BME280;16452;54.174;12.092;2022-11-20T12:39:40;100680.06;;;5.25;99.72
29505;BME280;16452;54.174;12.092;2022-11-20T12:48:35;100678.84;;;5.09;100.00
29505;BME280;16452;54.174;12.092;2022-11-20T12:57:18;100681.84;;;5.23;100.00
29505;BME280;16452;54.174;12.092;2022-11-20T13:00:14;100679.84;;;5.05;100.00
29505;BME280;16452;54.174;12.092;2022-11-20T13:03:08;100681.34;;;5.38;99.36
29505;BME280;16452;54.174;12.092;2022-11-20T13:08:35;100670.69;;;5.22;99.07
29505;BME280;16452;54.174;12.092;2022-11-20T13:11:32;100676.59;;;4.98;100.00
29505;BME280;16452;54.174;12.092;2022-11-20T13:17:24;100686.50;;;5.12;100.00
29505;BME280;16452;54.174;12.092;2022-11-20T13:19:55;100678.94;;;5.33;100.00
29505;BME280;16452;54.174;12.092;2022-11-20T13:22:44;100669.13;;;5.43;100.00
29505;BME280;16452;54.174;12.092;2022-11-20T13:25:30;100674.88;;;4.99;100.00
29505;BME280;16452;54.174;12.092;2022-11-20T13:28:24;100663.66;;;5.00;100.00
29505;BME280;16452;54.174;12.092;2022-11-20T13:30:51;100669.00;;;5.21;100.00
29505;BME280;16452;54.174;12.092;2022-11-20T13:33:56;100666.63;;;5.42;100.00
29505;BME280;16452;54.174;12.092;2022-11-20T13:36:25;100656.38;;;5.38;100.00
29505;BME280;16452;54.174;12.092;2022-11-20T13:38:54;100653.16;;;5.06;100.00
29505;BME280;16452;54.174;12.092;2022-11-20T13:41:32;100647.81;;;5.36;100.00
29505;BME280;16452;54.174;12.092;2022-11-20T13:47:24;100644.72;;;5.27;100.00
29505;BME280;16452;54.174;12.092;2022-11-20T13:49:52;100643.91;;;4.99;100.00
29505;BME280;16452;54.174;12.092;2022-11-20T13:59:09;100650.09;;;5.19;100.00
29505;BME280;16452;54.174;12.092;2022-11-20T14:01:39;100650.63;;;5.03;100.00
29505;BME280;16452;54.174;12.092;2022-11-20T14:04:09;100647.31;;;5.25;100.00
29505;BME280;16452;54.174;12.092;2022-11-20T14:06:44;100654.38;;;5.20;100.00
29505;BME280;16452;54.174;12.092;2022-11-20T14:09:29;100652.81;;;5.16;100.00
29505;BME280;16452;54.174;12.092;2022-11-20T14:11:56;100647.06;;;5.07;100.00
29505;BME280;16452;54.174;12.092;2022-11-20T14:14:28;100642.75;;;5.07;100.00
29505;BME280;16452;54.174;12.092;2022-11-20T14:17:17;100637.06;;;5.24;100.00
29505;BME280;16452;54.174;12.092;2022-11-20T14:19:44;100643.22;;;5.20;100.00